createdAt,value
2019-02-09T00:01:01.956Z,20.30
2019-02-09T00:03:31.169Z,20.30
2019-02-09T00:06:00.207Z,20.20
2019-02-09T00:08:29.454Z,20.20
2019-02-09T00:10:59.347Z,20.20
2019-02-09T00:13:28.383Z,20.20
2019-02-09T00:15:57.430Z,20.00
2019-02-09T00:18:26.505Z,20.00
2019-02-09T00:20:55.471Z,20.00
2019-02-09T00:23:24.525Z,19.90
2019-02-09T00:25:53.958Z,19.90
2019-02-09T00:28:23.002Z,19.80
2019-02-09T00:30:51.975Z,19.80
2019-02-09T00:33:21.035Z,19.80
2019-02-09T00:35:50.074Z,19.80
2019-02-09T00:38:19.102Z,19.80
2019-02-09T00:40:48.516Z,19.80
2019-02-09T00:43:17.554Z,19.70
2019-02-09T00:45:46.783Z,19.70
2019-02-09T00:48:16.106Z,19.70
2019-02-09T00:50:45.146Z,19.70
2019-02-09T00:53:14.191Z,19.60
2019-02-09T00:55:43.266Z,19.50
2019-02-09T00:58:12.305Z,19.40
2019-02-09T01:00:41.353Z,19.30
2019-02-09T01:03:10.518Z,19.30
2019-02-09T01:05:44.560Z,19.20
2019-02-09T01:08:14.186Z,19.20
2019-02-09T01:10:44.039Z,19.10
2019-02-09T01:13:13.011Z,18.90
2019-02-09T01:15:41.983Z,18.90
2019-02-09T01:18:11.115Z,18.70
2019-02-09T01:20:40.171Z,18.80
2019-02-09T01:23:09.230Z,18.80
2019-02-09T01:25:38.989Z,18.80
2019-02-09T01:28:08.136Z,18.70
2019-02-09T01:30:37.226Z,18.50
2019-02-09T01:33:06.300Z,18.50
2019-02-09T01:35:35.455Z,18.40
2019-02-09T01:38:04.538Z,18.40
2019-02-09T01:40:34.281Z,18.20
2019-02-09T01:43:03.274Z,18.30
2019-02-09T01:45:32.602Z,18.40
2019-02-09T01:48:01.726Z,18.30
2019-02-09T01:50:31.787Z,18.10
2019-02-09T01:53:00.827Z,18.10
2019-02-09T01:55:30.586Z,18.20
2019-02-09T01:57:59.636Z,18.10
2019-02-09T02:00:30.695Z,18.00
2019-02-09T02:02:59.871Z,18.00
2019-02-09T02:05:28.964Z,17.90
2019-02-09T02:07:58.082Z,17.90
2019-02-09T02:10:29.324Z,17.90
2019-02-09T02:13:00.141Z,17.90
2019-02-09T02:15:29.280Z,17.90
2019-02-09T02:17:58.452Z,17.90
2019-02-09T02:20:28.251Z,17.80
2019-02-09T02:22:57.313Z,17.80
2019-02-09T02:25:27.333Z,17.80
2019-02-09T02:27:56.465Z,17.60
2019-02-09T02:30:30.597Z,17.60
2019-02-09T02:33:00.508Z,17.60
2019-02-09T02:35:29.550Z,17.50
2019-02-09T02:37:58.602Z,17.50
2019-02-09T02:40:27.992Z,17.50
2019-02-09T02:42:57.121Z,17.40
2019-02-09T02:45:26.191Z,17.50
2019-02-09T02:47:56.014Z,17.40
2019-02-09T02:50:25.307Z,17.40
2019-02-09T02:52:54.369Z,17.30
2019-02-09T02:55:25.255Z,17.20
2019-02-09T02:57:54.537Z,17.20
2019-02-09T03:00:31.907Z,17.10
2019-02-09T03:02:56.574Z,17.10
2019-02-09T03:05:25.728Z,17.00
2019-02-09T03:07:54.985Z,17.00
2019-02-09T03:10:24.072Z,17.10
2019-02-09T03:12:54.301Z,17.10
2019-02-09T03:15:25.199Z,17.00
2019-02-09T03:17:54.223Z,16.90
2019-02-09T03:20:23.375Z,16.80
2019-02-09T03:22:52.617Z,16.80
2019-02-09T03:25:26.813Z,16.80
2019-02-09T03:27:55.912Z,16.80
2019-02-09T03:30:25.040Z,16.90
2019-02-09T03:32:54.694Z,16.80
2019-02-09T03:35:23.810Z,16.80
2019-02-09T03:37:52.828Z,16.70
2019-02-09T03:40:24.282Z,16.70
2019-02-09T03:42:53.341Z,16.70
2019-02-09T03:45:30.475Z,16.70
2019-02-09T03:47:59.553Z,16.70
2019-02-09T03:50:30.049Z,16.60
2019-02-09T03:52:59.239Z,16.70
2019-02-09T03:55:28.357Z,16.70
2019-02-09T03:57:57.437Z,16.70
2019-02-09T04:00:28.058Z,16.70
2019-02-09T04:02:57.154Z,16.70
2019-02-09T04:05:26.221Z,16.70
2019-02-09T04:07:55.478Z,16.70
2019-02-09T04:10:25.274Z,16.70
2019-02-09T04:12:54.957Z,16.60
2019-02-09T04:15:24.790Z,16.60
2019-02-09T04:17:53.904Z,16.60
2019-02-09T04:20:23.080Z,16.60
2019-02-09T04:22:52.071Z,16.50
2019-02-09T04:25:21.482Z,16.50
2019-02-09T04:27:50.769Z,16.30
2019-02-09T04:30:21.516Z,16.50
2019-02-09T04:32:50.603Z,16.50
2019-02-09T04:35:19.683Z,16.50
2019-02-09T04:37:48.761Z,16.40
2019-02-09T04:40:20.226Z,16.30
2019-02-09T04:42:49.994Z,16.40
2019-02-09T04:45:19.142Z,16.30
2019-02-09T04:47:48.282Z,16.30
2019-02-09T04:50:17.941Z,16.30
2019-02-09T04:52:47.019Z,16.30
2019-02-09T04:55:20.562Z,16.30
2019-02-09T04:57:49.695Z,16.20
2019-02-09T05:00:21.009Z,16.30
2019-02-09T05:02:50.142Z,16.30
2019-02-09T05:05:19.222Z,16.30
2019-02-09T05:07:48.362Z,16.30
2019-02-09T05:10:18.059Z,16.20
2019-02-09T05:12:47.346Z,16.20
2019-02-09T05:15:16.648Z,16.20
2019-02-09T05:17:45.696Z,16.20
2019-02-09T05:20:16.343Z,16.20
2019-02-09T05:22:45.425Z,16.20
2019-02-09T05:25:14.563Z,16.20
2019-02-09T05:27:43.744Z,16.20
2019-02-09T05:30:21.111Z,16.20
2019-02-09T05:32:50.156Z,16.20
2019-02-09T05:35:19.261Z,16.20
2019-02-09T05:37:48.472Z,16.20
2019-02-09T05:40:20.047Z,16.10
2019-02-09T05:42:49.156Z,16.10
2019-02-09T05:45:19.946Z,16.10
2019-02-09T05:47:49.231Z,16.10
2019-02-09T05:50:18.695Z,16.10
2019-02-09T05:52:47.683Z,16.10
2019-02-09T05:55:17.406Z,16.10
2019-02-09T05:57:46.383Z,16.00
2019-02-09T06:00:24.570Z,16.00
2019-02-09T06:02:53.603Z,15.90
2019-02-09T06:05:22.700Z,16.00
2019-02-09T06:07:52.181Z,16.00
2019-02-09T06:10:21.275Z,15.90
2019-02-09T06:12:50.567Z,15.90
2019-02-09T06:15:20.109Z,15.90
2019-02-09T06:17:49.176Z,15.90
2019-02-09T06:20:20.418Z,15.80
2019-02-09T06:22:50.120Z,15.80
2019-02-09T06:25:19.250Z,15.70
2019-02-09T06:27:48.316Z,15.90
2019-02-09T06:30:22.061Z,15.80
2019-02-09T06:32:51.105Z,15.80
2019-02-09T06:35:20.175Z,15.80
2019-02-09T06:37:49.258Z,15.80
2019-02-09T06:40:18.354Z,15.80
2019-02-09T06:42:47.414Z,15.80
2019-02-09T06:45:19.024Z,15.80
2019-02-09T06:47:48.114Z,15.80
2019-02-09T06:50:28.708Z,15.70
2019-02-09T06:52:57.763Z,15.80
2019-02-09T06:55:26.873Z,15.70
2019-02-09T06:57:55.945Z,15.60
2019-02-09T07:00:25.033Z,15.60
2019-02-09T07:02:54.617Z,15.60
2019-02-09T07:05:24.171Z,15.60
2019-02-09T07:07:53.250Z,15.70
2019-02-09T07:10:23.604Z,15.60
2019-02-09T07:12:53.402Z,15.50
2019-02-09T07:15:25.118Z,15.50
2019-02-09T07:17:54.566Z,15.50
2019-02-09T07:20:24.082Z,15.40
2019-02-09T07:22:53.243Z,15.40
2019-02-09T07:25:22.438Z,15.50
2019-02-09T07:27:51.617Z,15.40
2019-02-09T07:30:22.823Z,15.40
2019-02-09T07:32:51.946Z,15.50
2019-02-09T07:35:21.143Z,15.40
2019-02-09T07:37:50.308Z,15.40
2019-02-09T07:40:19.775Z,15.40
2019-02-09T07:42:49.520Z,15.40
2019-02-09T07:45:20.322Z,15.40
2019-02-09T07:47:49.377Z,15.40
2019-02-09T07:50:19.343Z,15.40
2019-02-09T07:52:48.645Z,15.40
2019-02-09T07:55:17.814Z,15.40
2019-02-09T07:57:47.253Z,15.40
2019-02-09T08:00:24.165Z,15.40
2019-02-09T08:02:53.827Z,15.40
2019-02-09T08:05:24.293Z,15.40
2019-02-09T08:07:53.585Z,15.50
2019-02-09T08:10:24.854Z,16.00
2019-02-09T08:12:54.065Z,17.20
2019-02-09T08:15:24.825Z,18.00
2019-02-09T08:17:54.846Z,18.40
2019-02-09T08:20:25.407Z,18.70
2019-02-09T08:22:55.290Z,19.30
2019-02-09T08:25:25.863Z,19.70
2019-02-09T08:27:54.950Z,20.60
2019-02-09T08:30:32.582Z,21.80
2019-02-09T08:33:01.643Z,22.70
2019-02-09T08:35:30.695Z,23.40
2019-02-09T08:37:59.894Z,24.40
2019-02-09T08:40:28.943Z,25.10
2019-02-09T08:42:57.911Z,26.10
2019-02-09T08:45:27.008Z,26.20
2019-02-09T08:47:56.086Z,26.10
2019-02-09T08:50:30.587Z,26.60
2019-02-09T08:52:59.754Z,27.00
2019-02-09T08:55:28.806Z,27.40
2019-02-09T08:57:58.113Z,27.90
2019-02-09T09:00:28.695Z,28.30
2019-02-09T09:02:57.658Z,28.00
2019-02-09T09:05:27.178Z,27.70
2019-02-09T09:07:56.195Z,28.40
2019-02-09T09:10:26.062Z,28.30
2019-02-09T09:12:55.267Z,28.20
2019-02-09T09:15:30.241Z,27.80
2019-02-09T09:17:59.545Z,26.90
2019-02-09T09:20:34.003Z,26.70
2019-02-09T09:23:03.170Z,26.40
2019-02-09T09:25:32.229Z,26.40
2019-02-09T09:28:01.274Z,26.00
2019-02-09T09:30:30.619Z,26.20
2019-02-09T09:32:59.664Z,26.30
2019-02-09T09:35:28.636Z,26.30
2019-02-09T09:37:58.026Z,26.20
2019-02-09T09:40:29.327Z,26.40
2019-02-09T09:42:58.370Z,26.80
2019-02-09T09:45:32.858Z,26.80
2019-02-09T09:48:01.928Z,26.60
2019-02-09T09:50:30.998Z,26.60
2019-02-09T09:53:00.154Z,27.20
2019-02-09T09:55:29.214Z,27.00
2019-02-09T09:57:58.171Z,26.80
2019-02-09T10:00:28.052Z,26.40
2019-02-09T10:02:57.154Z,26.40
2019-02-09T10:05:26.111Z,26.50
2019-02-09T10:07:55.378Z,26.40
2019-02-09T10:10:24.414Z,26.20
2019-02-09T10:12:53.597Z,26.20
2019-02-09T10:15:23.829Z,26.40
2019-02-09T10:17:53.312Z,26.40
2019-02-09T10:20:23.846Z,26.20
2019-02-09T10:22:52.930Z,25.90
2019-02-09T10:25:21.895Z,25.90
2019-02-09T10:27:52.771Z,26.30
2019-02-09T10:30:23.930Z,26.20
2019-02-09T10:32:53.379Z,25.90
2019-02-09T10:35:22.655Z,25.50
2019-02-09T10:37:51.754Z,25.20
2019-02-09T10:40:25.839Z,25.00
2019-02-09T10:42:54.926Z,25.30
2019-02-09T10:45:25.765Z,25.60
2019-02-09T10:47:54.816Z,25.50
2019-02-09T10:50:26.241Z,25.30
2019-02-09T10:52:55.738Z,25.20
2019-02-09T10:55:24.814Z,25.60
2019-02-09T10:57:53.864Z,25.70
2019-02-09T11:00:30.471Z,25.40
2019-02-09T11:02:59.530Z,25.30
2019-02-09T11:05:28.561Z,25.30
2019-02-09T11:07:57.754Z,25.70
2019-02-09T11:10:26.806Z,25.80
2019-02-09T11:12:55.850Z,25.50
2019-02-09T11:15:25.506Z,25.30
2019-02-09T11:17:54.703Z,25.70
2019-02-09T11:20:24.285Z,25.90
2019-02-09T11:22:53.253Z,25.70
2019-02-09T11:25:22.334Z,25.60
2019-02-09T11:27:51.379Z,25.40
2019-02-09T11:30:21.526Z,25.30
2019-02-09T11:32:50.566Z,25.10
2019-02-09T11:35:19.698Z,24.90
2019-02-09T11:37:48.821Z,24.70
2019-02-09T11:40:19.367Z,24.50
2019-02-09T11:42:48.514Z,24.30
2019-02-09T11:45:20.159Z,24.10
2019-02-09T11:47:49.227Z,24.40
2019-02-09T11:50:18.196Z,24.60
2019-02-09T11:52:47.289Z,24.60
2019-02-09T11:55:17.088Z,24.50
2019-02-09T11:57:46.068Z,24.40
2019-02-09T12:00:23.466Z,24.20
2019-02-09T12:02:52.523Z,24.10
2019-02-09T12:05:21.575Z,24.20
2019-02-09T12:07:50.770Z,24.10
2019-02-09T12:10:20.153Z,23.90
2019-02-09T12:12:49.385Z,24.00
2019-02-09T12:15:21.290Z,24.00
2019-02-09T12:17:50.522Z,24.10
2019-02-09T12:20:20.978Z,23.90
2019-02-09T12:22:50.251Z,23.90
2019-02-09T12:25:21.275Z,23.70
2019-02-09T12:27:50.364Z,23.50
2019-02-09T12:30:21.526Z,23.40
2019-02-09T12:32:50.581Z,23.30
2019-02-09T12:35:19.852Z,23.50
2019-02-09T12:37:49.103Z,23.80
2019-02-09T12:40:19.941Z,23.90
2019-02-09T12:42:49.052Z,23.90
2019-02-09T12:45:19.160Z,23.70
2019-02-09T12:47:48.129Z,23.50
2019-02-09T12:50:19.005Z,23.70
2019-02-09T12:52:48.594Z,23.90
2019-02-09T12:55:17.727Z,24.00
2019-02-09T12:57:46.971Z,24.00
2019-02-09T13:00:27.332Z,23.90
2019-02-09T13:02:56.909Z,23.80
2019-02-09T13:05:26.078Z,23.60
2019-02-09T13:07:55.458Z,23.50
2019-02-09T13:10:24.502Z,23.30
2019-02-09T13:12:53.564Z,23.20
2019-02-09T13:15:25.319Z,23.00
2019-02-09T13:17:54.667Z,22.80
2019-02-09T13:20:25.570Z,23.20
2019-02-09T13:22:54.703Z,23.60
2019-02-09T13:25:23.739Z,23.50
2019-02-09T13:27:52.789Z,23.80
2019-02-09T13:30:27.200Z,23.50
2019-02-09T13:32:56.251Z,23.30
2019-02-09T13:35:25.568Z,23.30
2019-02-09T13:37:54.674Z,23.50
2019-02-09T13:40:23.685Z,23.50
2019-02-09T13:42:52.774Z,23.60
2019-02-09T13:45:27.084Z,23.70
2019-02-09T13:47:56.133Z,23.30
2019-02-09T13:50:25.280Z,23.30
2019-02-09T13:52:54.471Z,23.50
2019-02-09T13:55:23.574Z,23.40
2019-02-09T13:57:52.639Z,23.40
2019-02-09T14:00:23.021Z,23.30
2019-02-09T14:02:52.211Z,23.20
2019-02-09T14:05:21.254Z,23.20
2019-02-09T14:07:50.290Z,23.50
2019-02-09T14:10:20.309Z,23.50
2019-02-09T14:12:49.355Z,23.50
2019-02-09T14:15:20.435Z,23.40
2019-02-09T14:17:49.607Z,23.20
2019-02-09T14:20:20.015Z,23.10
2019-02-09T14:22:49.137Z,22.90
2019-02-09T14:25:18.194Z,22.70
2019-02-09T14:27:48.053Z,22.60
2019-02-09T14:30:19.576Z,22.40
2019-02-09T14:32:48.629Z,22.30
2019-02-09T14:35:17.726Z,22.10
2019-02-09T14:37:46.799Z,22.00
2019-02-09T14:40:18.549Z,22.00
2019-02-09T14:42:47.638Z,22.30
2019-02-09T14:45:19.118Z,22.70
2019-02-09T14:47:48.170Z,22.70
2019-02-09T14:50:17.139Z,22.60
2019-02-09T14:52:47.073Z,22.40
2019-02-09T14:55:21.666Z,22.20
2019-02-09T14:57:51.048Z,21.90
2019-02-09T15:00:22.172Z,21.70
2019-02-09T15:02:53.969Z,21.50
2019-02-09T15:05:22.122Z,21.50
2019-02-09T15:07:51.292Z,21.50
2019-02-09T15:10:20.439Z,21.80
2019-02-09T15:12:49.577Z,22.00
2019-02-09T15:15:30.655Z,22.20
2019-02-09T15:17:59.796Z,22.20
2019-02-09T15:20:31.738Z,22.00
2019-02-09T15:23:00.806Z,21.80
2019-02-09T15:25:29.970Z,21.60
2019-02-09T15:27:59.010Z,22.10
2019-02-09T15:30:28.258Z,22.40
2019-02-09T15:35:31.830Z,22.60
2019-02-09T15:38:01.643Z,22.50
2019-02-09T15:40:30.737Z,22.40
2019-02-09T15:42:59.798Z,22.20
2019-02-09T15:45:29.209Z,22.40
2019-02-09T15:47:58.180Z,22.50
2019-02-09T15:50:27.243Z,22.70
2019-02-09T15:52:56.316Z,22.70
2019-02-09T15:55:25.393Z,22.50
2019-02-09T15:57:54.501Z,22.30
2019-02-09T16:00:25.552Z,22.00
2019-02-09T16:02:55.538Z,21.90
2019-02-09T16:05:24.710Z,21.80
2019-02-09T16:07:55.698Z,22.10
2019-02-09T16:10:24.830Z,22.40
2019-02-09T16:12:53.878Z,22.40
2019-02-09T16:15:24.886Z,22.40
2019-02-09T16:17:53.873Z,22.30
2019-02-09T16:20:23.451Z,22.20
2019-02-09T16:22:54.265Z,22.30
2019-02-09T16:25:23.398Z,22.50
2019-02-09T16:27:52.675Z,22.70
2019-02-09T16:30:23.180Z,22.50
2019-02-09T16:32:52.255Z,22.30
2019-02-09T16:35:22.467Z,22.20
2019-02-09T16:37:51.689Z,22.60
2019-02-09T16:40:22.615Z,22.80
2019-02-09T16:42:51.672Z,22.80
2019-02-09T16:45:29.009Z,22.70
2019-02-09T16:47:58.072Z,22.60
2019-02-09T16:50:27.126Z,22.90
2019-02-09T16:52:56.237Z,23.10
2019-02-09T16:55:25.305Z,23.30
2019-02-09T16:57:54.394Z,23.30
2019-02-09T17:00:28.787Z,23.10
2019-02-09T17:02:57.855Z,23.10
2019-02-09T17:05:26.913Z,23.30
2019-02-09T17:07:56.017Z,23.20
2019-02-09T17:10:25.104Z,23.10
2019-02-09T17:12:54.177Z,23.00
2019-02-09T17:15:25.051Z,22.90
2019-02-09T17:17:54.520Z,23.00
2019-02-09T17:20:23.578Z,23.20
2019-02-09T17:22:52.733Z,23.10
2019-02-09T17:25:21.905Z,23.10
2019-02-09T17:27:50.963Z,23.00
2019-02-09T17:30:25.047Z,22.90
2019-02-09T17:32:54.030Z,23.00
2019-02-09T17:35:23.250Z,23.20
2019-02-09T17:37:52.590Z,23.20
2019-02-09T17:40:26.877Z,23.10
2019-02-09T17:42:55.938Z,22.90
2019-02-09T17:45:30.857Z,22.80
2019-02-09T17:47:59.852Z,22.90
2019-02-09T17:50:28.918Z,23.20
2019-02-09T17:53:00.208Z,23.00
2019-02-09T17:55:29.289Z,23.00
2019-02-09T17:57:58.354Z,22.90
2019-02-09T18:00:33.072Z,22.80
2019-02-09T18:03:02.115Z,22.90
2019-02-09T18:05:31.281Z,23.00
2019-02-09T18:08:00.452Z,23.00
2019-02-09T18:10:29.583Z,23.00
2019-02-09T18:12:58.551Z,22.90
2019-02-09T18:15:28.051Z,22.70
2019-02-09T18:17:57.121Z,22.70
2019-02-09T18:20:26.159Z,23.10
2019-02-09T18:22:55.304Z,23.10
2019-02-09T18:25:24.363Z,23.00
2019-02-09T18:27:53.409Z,22.90
2019-02-09T18:30:23.846Z,22.70
2019-02-09T18:32:52.903Z,22.70
2019-02-09T18:35:22.119Z,22.50
2019-02-09T18:37:51.598Z,22.30
2019-02-09T18:40:21.563Z,22.00
2019-02-09T18:42:50.677Z,21.80
2019-02-09T18:45:22.375Z,21.60
2019-02-09T18:47:51.418Z,21.40
2019-02-09T18:50:22.242Z,21.30
2019-02-09T18:52:51.840Z,21.20
2019-02-09T18:55:22.178Z,21.10
2019-02-09T18:57:51.234Z,21.00
2019-02-09T19:00:25.883Z,20.90
2019-02-09T19:02:54.954Z,20.80
2019-02-09T19:05:24.050Z,20.70
2019-02-09T19:07:53.135Z,20.60
2019-02-09T19:10:23.682Z,20.50
2019-02-09T19:12:52.802Z,20.50
2019-02-09T19:15:22.912Z,20.80
2019-02-09T19:17:52.051Z,21.00
2019-02-09T19:20:23.534Z,21.00
2019-02-09T19:22:52.528Z,20.90
2019-02-09T19:25:21.602Z,20.80
2019-02-09T19:27:50.591Z,20.70
2019-02-09T19:30:21.235Z,20.60
2019-02-09T19:32:50.194Z,20.50
2019-02-09T19:35:19.234Z,20.40
2019-02-09T19:37:48.475Z,20.40
2019-02-09T19:40:18.003Z,20.40
2019-02-09T19:42:47.982Z,20.80
2019-02-09T19:45:22.361Z,21.00
2019-02-09T19:47:51.402Z,21.30
2019-02-09T19:50:20.490Z,21.80
2019-02-09T19:52:49.683Z,22.30
2019-02-09T19:55:20.603Z,23.00
2019-02-09T19:57:49.665Z,23.20
2019-02-09T20:00:23.941Z,23.40
2019-02-09T20:02:52.981Z,23.90
2019-02-09T20:05:22.052Z,24.40
2019-02-09T20:07:51.120Z,24.80
2019-02-09T20:10:25.735Z,24.70
2019-02-09T20:12:55.314Z,24.90
2019-02-09T20:15:24.358Z,25.40
2019-02-09T20:17:53.397Z,25.70
2019-02-09T20:20:22.468Z,25.50
2019-02-09T20:22:51.438Z,25.30
2019-02-09T20:25:21.318Z,25.50
2019-02-09T20:27:50.527Z,25.80
2019-02-09T20:30:30.870Z,25.70
2019-02-09T20:33:00.821Z,25.40
2019-02-09T20:35:29.858Z,25.40
2019-02-09T20:37:59.106Z,25.80
2019-02-09T20:40:33.855Z,25.80
2019-02-09T20:43:04.374Z,25.60
2019-02-09T20:45:33.684Z,25.40
2019-02-09T20:48:03.327Z,25.30
2019-02-09T20:50:32.382Z,25.60
2019-02-09T20:53:01.426Z,25.50
2019-02-09T20:55:30.897Z,25.30
2019-02-09T20:57:59.870Z,25.00
2019-02-09T21:00:28.934Z,25.10
2019-02-09T21:02:58.098Z,25.40
2019-02-09T21:05:27.227Z,25.30
2019-02-09T21:07:56.212Z,25.10
2019-02-09T21:10:27.961Z,24.90
2019-02-09T21:12:57.031Z,25.10
2019-02-09T21:15:26.838Z,25.20
2019-02-09T21:17:56.045Z,25.10
2019-02-09T21:20:25.099Z,24.90
2019-02-09T21:22:54.064Z,24.80
2019-02-09T21:25:30.925Z,25.10
2019-02-09T21:27:59.982Z,25.20
2019-02-09T21:30:29.077Z,24.90
2019-02-09T21:32:58.900Z,24.80
2019-02-09T21:35:28.209Z,24.90
2019-02-09T21:37:57.470Z,25.00
2019-02-09T21:40:28.643Z,24.90
2019-02-09T21:42:57.624Z,24.80
2019-02-09T21:45:26.726Z,24.70
2019-02-09T21:47:56.559Z,24.80
2019-02-09T21:50:33.242Z,25.00
2019-02-09T21:53:02.530Z,24.90
2019-02-09T21:55:31.685Z,24.70
2019-02-09T21:58:00.861Z,24.70
2019-02-09T22:00:32.870Z,25.00
2019-02-09T22:03:01.878Z,25.00
2019-02-09T22:05:30.840Z,24.90
2019-02-09T22:07:59.891Z,24.60
2019-02-09T22:10:32.127Z,24.70
2019-02-09T22:12:59.786Z,25.10
2019-02-09T22:15:29.354Z,25.10
2019-02-09T22:17:58.502Z,24.90
2019-02-09T22:20:27.549Z,24.60
2019-02-09T22:22:56.634Z,24.90
2019-02-09T22:25:25.781Z,25.10
2019-02-09T22:27:54.777Z,24.90
2019-02-09T22:30:25.689Z,24.60
2019-02-09T22:32:54.867Z,24.40
2019-02-09T22:35:24.289Z,24.30
2019-02-09T22:37:53.386Z,24.20
2019-02-09T22:40:24.708Z,24.10
2019-02-09T22:42:54.058Z,23.90
2019-02-09T22:45:23.642Z,23.80
2019-02-09T22:47:53.082Z,23.50
2019-02-09T22:50:24.606Z,23.70
2019-02-09T22:52:53.675Z,23.90
2019-02-09T22:55:22.739Z,24.10
2019-02-09T23:00:53.960Z,24.00
2019-02-09T23:03:28.982Z,23.70
2019-02-09T23:06:29.253Z,24.10
2019-02-09T23:08:58.295Z,24.10
2019-02-09T23:11:27.571Z,24.30
2019-02-09T23:13:56.754Z,24.30
2019-02-09T23:16:25.809Z,24.20
2019-02-09T23:18:54.857Z,24.10
2019-02-09T23:21:23.927Z,24.00
2019-02-09T23:23:52.886Z,23.70
2019-02-09T23:26:21.926Z,23.40
2019-02-09T23:28:51.017Z,23.20
2019-02-09T23:31:20.067Z,22.90
2019-02-09T23:33:49.038Z,22.50
2019-02-09T23:36:18.094Z,22.40
2019-02-09T23:38:47.138Z,22.30
2019-02-09T23:41:16.179Z,22.10
2019-02-09T23:43:45.718Z,22.00
2019-02-09T23:46:14.690Z,22.00
2019-02-09T23:48:43.735Z,22.00
2019-02-09T23:51:13.007Z,21.80
2019-02-09T23:53:42.060Z,21.70
2019-02-09T23:56:11.034Z,21.60
2019-02-09T23:58:40.003Z,21.50
